Time;durP1;ratioP1;P1;durP2;ratioP2;P2;SDS_P1;SDS_P2;PMS_P1;PMS_P2;Temp;Humidity;BMP_temperature;BMP_pressure;BME280_temperature;BME280_humidity;BME280_pressure;Samples;Min_cycle;Max_cycle;Signal;HPM_P1;HPM_P2
2022/03/29 00:01:03;;;;;;;14.82;10.07;;;;;;;19.71;42.86;101879.41;5039336;28;20045;-51
2022/03/29 00:03:30;;;;;;;14.38;10.60;;;;;;;19.71;43.42;101884.78;5038997;28;20047;-48
2022/03/29 00:05:56;;;;;;;15.20;9.75;;;;;;;19.70;42.85;101881.25;5039483;28;20409;-50
2022/03/29 00:08:23;;;;;;;15.82;10.43;;;;;;;19.68;43.64;101869.75;5040550;28;20658;-49
2022/03/29 00:10:50;;;;;;;13.52;9.75;;;;;;;19.69;42.61;101879.50;5043592;28;20416;-50
2022/03/29 00:13:16;;;;;;;13.32;9.57;;;;;;;19.66;43.30;101861.00;5041774;28;20289;-52
2022/03/29 00:15:43;;;;;;;15.30;9.82;;;;;;;19.67;43.07;101868.06;5045651;28;20740;-51
2022/03/29 00:18:10;;;;;;;14.90;10.05;;;;;;;19.68;42.88;101869.75;5040690;28;20065;-49
2022/03/29 00:20:36;;;;;;;13.32;9.50;;;;;;;19.66;42.82;101858.28;5037378;28;20128;-51
2022/03/29 00:23:03;;;;;;;13.75;9.73;;;;;;;19.65;42.77;101859.25;5038973;28;20172;-51
2022/03/29 00:25:30;;;;;;;13.23;9.25;;;;;;;19.62;42.95;101862.25;5038680;28;20902;-52
2022/03/29 00:27:56;;;;;;;13.90;9.65;;;;;;;19.63;42.67;101855.88;5039910;28;20053;-49
2022/03/29 00:30:23;;;;;;;14.05;9.18;;;;;;;19.63;43.21;101855.03;5040417;28;20049;-51
2022/03/29 00:32:50;;;;;;;13.60;9.48;;;;;;;19.62;43.37;101853.34;5038271;28;20139;-52
2022/03/29 00:35:17;;;;;;;16.08;9.23;;;;;;;19.60;43.47;101845.34;5037631;28;20437;-50
2022/03/29 00:37:43;;;;;;;15.77;9.32;;;;;;;19.60;43.67;101842.66;5042096;28;20041;-51
2022/03/29 00:40:12;;;;;;;14.23;8.48;;;;;;;19.60;43.31;101845.34;5044292;28;20075;-51
2022/03/29 00:42:39;;;;;;;14.88;9.68;;;;;;;19.59;43.28;101838.28;5044737;28;20127;-52
2022/03/29 00:45:07;;;;;;;12.10;8.63;;;;;;;19.59;42.98;101840.13;5043034;28;20047;-51
2022/03/29 00:47:34;;;;;;;13.00;8.35;;;;;;;19.55;42.95;101834.19;5043312;28;20408;-52
2022/03/29 00:50:01;;;;;;;12.90;9.55;;;;;;;19.55;43.23;101827.97;5039475;28;20052;-51
2022/03/29 00:52:28;;;;;;;13.80;9.23;;;;;;;19.54;43.03;101824.44;5040903;28;20423;-50
2022/03/29 00:54:54;;;;;;;12.35;8.82;;;;;;;19.54;43.42;101821.72;5042649;28;20141;-52
2022/03/29 00:57:21;;;;;;;12.50;8.93;;;;;;;19.52;42.60;101817.47;5043361;28;20124;-52
2022/03/29 00:59:49;;;;;;;12.30;8.95;;;;;;;19.52;42.75;101823.69;5039892;28;20051;-50
2022/03/29 01:02:16;;;;;;;13.40;9.25;;;;;;;19.54;43.25;101815.47;5042470;28;20051;-51
2022/03/29 01:04:43;;;;;;;13.52;8.90;;;;;;;19.51;42.84;101823.84;5046748;28;20045;-53
2022/03/29 01:07:10;;;;;;;12.07;8.90;;;;;;;19.49;43.47;101807.84;5042276;28;20520;-51
2022/03/29 01:09:37;;;;;;;13.60;9.07;;;;;;;19.48;42.90;101808.84;5041192;28;20482;-52
2022/03/29 01:12:04;;;;;;;12.68;8.43;;;;;;;19.48;43.04;101798.91;5041605;28;20048;-50
2022/03/29 01:14:31;;;;;;;11.15;8.30;;;;;;;19.47;43.13;101809.84;5042084;28;20139;-52
2022/03/29 01:19:46;;;;;;;12.98;8.35;;;;;;;19.45;42.98;101791.13;5038867;28;20048;-49
2022/03/29 01:22:12;;;;;;;13.32;8.25;;;;;;;19.44;43.53;101791.28;5044245;28;20049;-49
2022/03/29 01:24:43;;;;;;;13.25;9.00;;;;;;;19.43;43.60;101786.91;5042122;28;20045;-47
2022/03/29 01:27:12;;;;;;;12.48;8.77;;;;;;;19.40;43.20;101785.34;5040829;28;20417;-51
2022/03/29 01:29:40;;;;;;;12.32;7.85;;;;;;;19.42;42.89;101785.22;5040952;28;20048;-50
2022/03/29 01:32:11;;;;;;;12.02;8.27;;;;;;;19.40;43.41;101784.47;5045357;28;20060;-51
2022/03/29 01:34:41;;;;;;;11.18;7.80;;;;;;;19.41;43.11;101784.34;5042556;28;20075;-51
2022/03/29 01:37:09;;;;;;;11.90;8.32;;;;;;;19.40;43.51;101792.53;5041398;28;20041;-52
2022/03/29 01:39:37;;;;;;;12.88;8.00;;;;;;;19.38;43.63;101792.69;5043421;28;20080;-50
2022/03/29 01:42:04;;;;;;;11.85;8.13;;;;;;;19.39;43.21;101794.41;5041915;28;20041;-51
2022/03/29 01:44:31;;;;;;;10.65;8.05;;;;;;;19.38;43.42;101787.31;5041727;28;20079;-51
2022/03/29 01:46:58;;;;;;;12.55;7.93;;;;;;;19.38;42.90;101784.63;5040726;28;20060;-52
2022/03/29 01:49:25;;;;;;;10.23;7.75;;;;;;;19.38;43.27;101778.41;5043625;28;20459;-51
2022/03/29 01:51:52;;;;;;;10.20;6.97;;;;;;;19.38;42.98;101779.25;5042679;28;20037;-51
2022/03/29 01:54:19;;;;;;;11.00;7.90;;;;;;;19.37;42.88;101774.84;5042057;28;20049;-49
2022/03/29 01:56:45;;;;;;;10.45;7.43;;;;;;;19.36;43.59;101775.00;5043899;28;20128;-53
2022/03/29 01:59:12;;;;;;;9.75;7.20;;;;;;;19.35;43.37;101765.25;5045521;28;20047;-50
2022/03/29 02:01:46;;;;;;;14.23;8.27;;;;;;;19.36;43.19;101756.19;5042398;28;20041;-51
2022/03/29 02:04:13;;;;;;;11.00;7.30;;;;;;;19.34;43.77;101759.03;5044011;28;20041;-49
2022/03/29 02:06:41;;;;;;;9.85;6.95;;;;;;;19.34;43.65;101752.81;5043037;28;20049;-51
2022/03/29 02:09:08;;;;;;;10.68;7.55;;;;;;;19.34;43.61;101745.59;5042397;28;20144;-50
2022/03/29 02:11:35;;;;;;;10.70;7.43;;;;;;;19.33;42.77;101745.69;5041103;28;20044;-50
2022/03/29 02:14:02;;;;;;;8.93;6.95;;;;;;;19.31;43.16;101743.16;5039472;28;20092;-49
2022/03/29 02:16:29;;;;;;;11.77;8.32;;;;;;;19.32;43.80;101742.16;5046027;28;20037;-52
2022/03/29 02:18:55;;;;;;;11.20;7.85;;;;;;;19.32;43.20;101738.63;5043299;28;20057;-49
2022/03/29 02:21:22;;;;;;;11.25;7.50;;;;;;;19.30;43.44;101740.63;5039458;28;20041;-51
2022/03/29 02:23:48;;;;;;;10.35;7.25;;;;;;;19.31;43.90;101739.63;5040746;28;20061;-48
2022/03/29 02:26:15;;;;;;;10.57;7.35;;;;;;;19.30;42.92;101738.78;5046037;28;20047;-51
2022/03/29 02:28:42;;;;;;;11.43;7.70;;;;;;;19.29;43.70;101744.28;5043381;28;20073;-49
2022/03/29 02:31:08;;;;;;;9.43;6.63;;;;;;;19.28;43.05;101738.06;5039745;28;20140;-51
2022/03/29 02:33:35;;;;;;;10.20;6.88;;;;;;;19.27;43.09;101741.75;5042006;28;20688;-52
2022/03/29 02:36:02;;;;;;;9.07;6.95;;;;;;;19.28;43.04;101737.22;5041859;28;20156;-47
2022/03/29 02:38:28;;;;;;;12.23;7.40;;;;;;;19.28;43.72;101729.16;5041991;28;20036;-50
2022/03/29 02:40:58;;;;;;;9.07;6.82;;;;;;;19.27;43.88;101735.53;5042484;28;20052;-46
2022/03/29 02:43:27;;;;;;;9.82;7.00;;;;;;;19.25;43.26;101724.91;5041925;28;20156;-52
2022/03/29 02:45:54;;;;;;;9.65;7.05;;;;;;;19.23;43.04;101721.50;5040483;28;20066;-48
2022/03/29 02:48:20;;;;;;;11.25;7.43;;;;;;;19.21;43.60;101713.56;5046255;28;20045;-47
2022/03/29 02:50:47;;;;;;;9.95;7.47;;;;;;;19.21;43.39;101710.88;5040476;28;20636;-50
2022/03/29 02:53:15;;;;;;;9.25;6.82;;;;;;;19.20;43.01;101711.88;5039776;28;20063;-49
2022/03/29 02:55:42;;;;;;;9.13;6.88;;;;;;;19.21;43.59;101707.34;5040711;28;20037;-48
2022/03/29 02:58:09;;;;;;;10.00;7.20;;;;;;;19.19;43.41;101704.81;5039996;28;20044;-50
2022/03/29 03:00:36;;;;;;;9.07;6.57;;;;;;;19.18;43.81;101703.13;5039539;28;20129;-52
2022/03/29 03:03:03;;;;;;;10.25;6.95;;;;;;;19.18;43.56;101688.84;5041550;28;20037;-49
2022/03/29 03:05:30;;;;;;;8.38;6.28;;;;;;;19.17;43.01;101693.34;5043765;28;20045;-49
2022/03/29 03:07:57;;;;;;;11.30;7.25;;;;;;;19.17;43.29;101687.13;5037567;28;20045;-48
2022/03/29 03:10:25;;;;;;;11.73;7.68;;;;;;;19.16;43.17;101680.06;5037532;28;20908;-51
2022/03/29 03:12:52;;;;;;;10.65;7.95;;;;;;;19.14;43.40;101682.91;5037211;28;20140;-51
2022/03/29 03:15:23;;;;;;;11.82;7.28;;;;;;;19.15;43.32;101681.91;5040257;28;20065;-50
2022/03/29 03:17:52;;;;;;;8.93;6.93;;;;;;;19.12;43.47;101682.19;5041291;28;20072;-51
2022/03/29 03:20:19;;;;;;;9.82;6.43;;;;;;;19.14;43.50;101684.75;5040233;28;20052;-50
2022/03/29 03:22:46;;;;;;;8.93;7.07;;;;;;;19.13;43.73;101685.72;5041511;28;20037;-50
2022/03/29 03:25:12;;;;;;;10.57;7.15;;;;;;;19.12;43.69;101684.00;5043670;28;20164;-51
2022/03/29 03:27:40;;;;;;;9.10;6.82;;;;;;;19.11;43.77;101679.63;5041066;28;20075;-52
2022/03/29 03:30:11;;;;;;;8.48;6.43;;;;;;;19.10;43.84;101677.94;5041404;28;20045;-49
2022/03/29 03:32:39;;;;;;;11.38;7.85;;;;;;;19.10;43.74;101684.16;5040428;28;20068;-51
2022/03/29 03:35:07;;;;;;;13.27;6.82;;;;;;;19.10;43.65;101676.09;5041926;28;20141;-52
2022/03/29 03:37:34;;;;;;;9.13;6.55;;;;;;;19.10;43.77;101675.25;5040446;28;20056;-51
2022/03/29 03:40:03;;;;;;;9.15;7.03;;;;;;;19.10;43.63;101667.19;5036704;28;20442;-48
2022/03/29 03:42:30;;;;;;;9.20;6.45;;;;;;;19.09;43.37;101673.53;5039919;28;20047;-50
2022/03/29 03:44:58;;;;;;;8.82;6.57;;;;;;;19.08;43.20;101672.69;5043366;28;20428;-52
2022/03/29 03:47:27;;;;;;;9.85;6.95;;;;;;;19.08;43.70;101667.31;5044795;28;20822;-52
2022/03/29 03:49:54;;;;;;;9.30;6.45;;;;;;;19.08;43.62;101655.72;5045058;28;20179;-46
2022/03/29 03:52:20;;;;;;;8.95;6.43;;;;;;;19.08;43.46;101655.72;5044086;28;20038;-49
2022/03/29 03:54:47;;;;;;;8.75;6.50;;;;;;;19.07;44.04;101648.66;5046589;28;20505;-52
2022/03/29 03:57:14;;;;;;;8.98;5.90;;;;;;;19.05;43.56;101648.78;5045858;28;21904;-51
2022/03/29 03:59:40;;;;;;;8.35;6.00;;;;;;;19.06;43.74;101652.34;5045003;28;20049;-50
2022/03/29 04:02:07;;;;;;;8.18;6.63;;;;;;;19.07;44.00;101651.34;5041516;28;20056;-47
2022/03/29 04:04:34;;;;;;;10.00;6.65;;;;;;;19.06;43.40;101644.28;5045352;28;20037;-51
2022/03/29 04:07:00;;;;;;;8.55;5.90;;;;;;;19.04;43.54;101641.72;5046015;28;20131;-50
2022/03/29 04:09:28;;;;;;;10.60;6.95;;;;;;;19.04;43.72;101639.03;5042319;28;20061;-49
2022/03/29 04:11:54;;;;;;;9.98;5.93;;;;;;;19.04;43.68;101635.50;5043538;28;20076;-52
2022/03/29 04:14:21;;;;;;;9.35;6.18;;;;;;;19.03;43.70;101633.81;5045991;28;20151;-52
2022/03/29 04:16:47;;;;;;;8.05;5.80;;;;;;;19.02;44.08;101626.75;5043345;28;20048;-51
2022/03/29 04:19:14;;;;;;;9.23;6.03;;;;;;;19.01;43.89;101623.19;5048234;28;20099;-52
2022/03/29 04:21:40;;;;;;;10.38;6.68;;;;;;;19.01;43.64;101622.34;5047861;28;20433;-51
2022/03/29 04:24:07;;;;;;;11.20;6.32;;;;;;;19.01;43.81;101620.50;5050378;28;20053;-53
2022/03/29 04:26:33;;;;;;;10.65;7.57;;;;;;;18.99;43.81;101625.19;5050808;28;20448;-53
2022/03/29 04:29:00;;;;;;;11.50;7.55;;;;;;;18.98;43.91;101620.81;5046328;28;20059;-51
2022/03/29 04:31:27;;;;;;;11.23;7.40;;;;;;;18.98;43.91;101620.81;5041347;28;20565;-51
2022/03/29 04:33:53;;;;;;;10.15;7.10;;;;;;;18.97;43.98;101619.09;5043112;28;20136;-53
2022/03/29 04:36:20;;;;;;;10.15;7.03;;;;;;;18.95;44.27;101621.09;5043044;28;20059;-48
2022/03/29 04:38:46;;;;;;;9.95;7.28;;;;;;;18.95;43.63;101616.56;5044254;28;20147;-52
2022/03/29 04:41:13;;;;;;;9.98;7.38;;;;;;;18.94;43.93;101611.34;5044665;28;20128;-51
2022/03/29 04:43:39;;;;;;;10.18;6.97;;;;;;;18.92;43.94;101615.97;5044400;28;20148;-48
2022/03/29 04:46:07;;;;;;;9.30;6.45;;;;;;;18.94;43.70;101617.56;5046990;28;20063;-52
2022/03/29 04:48:34;;;;;;;9.07;6.28;;;;;;;18.92;43.98;101615.97;5050875;28;20041;-52
2022/03/29 04:51:00;;;;;;;10.43;6.97;;;;;;;18.91;44.17;101614.28;5038640;28;21616;-52
2022/03/29 04:53:27;;;;;;;11.60;7.65;;;;;;;18.90;43.89;101613.44;5042569;28;20544;-48
2022/03/29 04:55:55;;;;;;;9.60;6.75;;;;;;;18.91;44.08;101622.34;5046191;28;20124;-51
2022/03/29 04:58:23;;;;;;;10.13;6.82;;;;;;;18.90;43.77;101621.50;5042209;28;20139;-47
2022/03/29 05:00:49;;;;;;;8.93;6.28;;;;;;;18.90;43.74;101610.75;5047007;28;20053;-48
2022/03/29 05:03:16;;;;;;;9.38;7.13;;;;;;;18.88;43.58;101612.72;5048001;28;20063;-49
2022/03/29 05:05:44;;;;;;;10.65;6.88;;;;;;;18.89;43.57;101608.19;5046268;28;20056;-49
2022/03/29 05:08:11;;;;;;;10.32;7.32;;;;;;;18.88;43.69;101611.88;5046494;28;20041;-48
2022/03/29 05:10:37;;;;;;;10.18;7.03;;;;;;;18.88;43.73;101609.19;5048136;28;20051;-51
2022/03/29 05:13:04;;;;;;;9.50;7.10;;;;;;;18.87;43.86;101602.97;5047905;28;20074;-49
2022/03/29 05:15:30;;;;;;;9.75;6.53;;;;;;;18.86;43.91;101603.13;5046265;28;20152;-53
2022/03/29 05:17:57;;;;;;;10.40;6.88;;;;;;;18.86;43.62;101600.44;5044254;28;20041;-51
2022/03/29 05:20:24;;;;;;;10.82;7.20;;;;;;;18.85;43.54;101602.25;5048612;28;20072;-50
2022/03/29 05:22:52;;;;;;;11.70;6.28;;;;;;;18.83;43.66;101600.72;5045057;28;20047;-49
2022/03/29 05:25:23;;;;;;;12.75;7.93;;;;;;;18.84;43.82;101600.56;5045334;28;20128;-51
2022/03/29 05:27:52;;;;;;;10.50;6.95;;;;;;;18.83;43.79;101603.41;5050551;28;20037;-51
2022/03/29 05:30:19;;;;;;;10.68;7.20;;;;;;;18.82;44.05;101591.81;5047803;28;20049;-52
2022/03/29 05:32:47;;;;;;;10.68;7.60;;;;;;;18.83;43.71;101595.34;5044025;28;20060;-51
2022/03/29 05:35:14;;;;;;;10.00;6.35;;;;;;;18.82;43.56;101588.28;5046676;28;20070;-52
2022/03/29 05:37:42;;;;;;;15.18;8.10;;;;;;;18.84;45.68;101587.13;5046598;28;20277;-50
2022/03/29 05:40:10;;;;;;;24.15;9.85;;;;;;;18.88;48.37;101590.41;5043130;28;20060;-47
2022/03/29 05:42:39;;;;;;;30.35;9.55;;;;;;;18.93;50.49;101590.81;5047440;28;20048;-50
2022/03/29 05:45:06;;;;;;;21.23;8.32;;;;;;;18.98;51.69;101584.03;5046553;28;20135;-48
2022/03/29 05:50:18;;;;;;;25.10;10.05;;;;;;;19.05;53.79;101592.38;5047118;28;20057;-51
2022/03/29 05:52:45;;;;;;;32.47;11.05;;;;;;;19.06;55.07;101588.72;5044509;28;20051;-52
2022/03/29 05:55:12;;;;;;;32.92;11.88;;;;;;;19.06;54.58;101588.72;5043500;28;20127;-52
2022/03/29 05:57:38;;;;;;;32.03;10.50;;;;;;;19.06;54.38;101593.25;5046988;28;20128;-50
2022/03/29 06:00:08;;;;;;;33.50;11.13;;;;;;;19.04;54.38;101588.00;5046832;28;20293;-52
2022/03/29 06:02:35;;;;;;;40.65;15.45;;;;;;;19.03;54.22;101590.81;5044944;28;20075;-51
2022/03/29 06:05:01;;;;;;;41.05;14.65;;;;;;;19.01;54.12;101585.56;5047022;28;20136;-51
2022/03/29 06:07:28;;;;;;;34.88;15.15;;;;;;;18.98;53.48;101589.41;5048668;28;20037;-52
2022/03/29 06:09:54;;;;;;;37.33;13.65;;;;;;;18.94;53.02;101582.63;5044113;28;20037;-52
2022/03/29 06:12:22;;;;;;;29.92;13.88;;;;;;;18.93;52.93;101580.06;5041548;28;20129;-53
2022/03/29 06:14:49;;;;;;;36.38;13.13;;;;;;;18.91;52.44;101580.22;5037664;28;20056;-49
2022/03/29 06:17:17;;;;;;;30.10;13.77;;;;;;;18.89;52.33;101586.72;5041654;28;20139;-50
2022/03/29 06:19:44;;;;;;;26.27;12.02;;;;;;;18.89;52.18;101589.41;5045537;28;20084;-50
2022/03/29 06:22:11;;;;;;;26.88;12.45;;;;;;;18.87;52.12;101588.72;5045804;28;20495;-52
2022/03/29 06:24:38;;;;;;;23.88;11.55;;;;;;;18.86;51.66;101587.03;5046484;28;20083;-49
2022/03/29 06:27:05;;;;;;;26.00;13.02;;;;;;;18.84;51.54;101584.44;5047355;28;20570;-52
2022/03/29 06:29:32;;;;;;;25.20;12.73;;;;;;;18.83;51.32;101587.28;5044260;28;20410;-52
2022/03/29 06:31:59;;;;;;;27.63;12.77;;;;;;;18.82;51.19;101586.44;5040967;28;20055;-51
2022/03/29 06:34:26;;;;;;;22.80;11.32;;;;;;;18.80;51.04;101582.19;5039913;28;20432;-51
2022/03/29 06:36:53;;;;;;;26.15;12.45;;;;;;;18.79;50.89;101581.34;5043814;28;20052;-52
2022/03/29 06:39:19;;;;;;;24.80;12.00;;;;;;;18.79;51.00;101581.34;5045478;28;20371;-52
2022/03/29 06:41:46;;;;;;;21.02;11.13;;;;;;;18.78;50.89;101579.66;5044152;28;20059;-51
2022/03/29 06:44:13;;;;;;;27.73;12.30;;;;;;;18.78;50.44;101581.50;5044755;28;20050;-50
2022/03/29 06:46:39;;;;;;;27.27;11.25;;;;;;;18.78;50.63;101581.50;5047656;28;20455;-51
2022/03/29 06:49:06;;;;;;;22.73;10.70;;;;;;;18.78;50.29;101585.03;5048743;28;20369;-49
2022/03/29 06:51:34;;;;;;;22.02;11.00;;;;;;;18.78;50.56;101584.19;5046553;28;20529;-52
2022/03/29 06:54:00;;;;;;;21.23;11.18;;;;;;;18.78;50.33;101584.19;5046956;28;20662;-52
2022/03/29 06:56:28;;;;;;;22.05;11.25;;;;;;;18.77;49.94;101580.63;5040243;28;20047;-53
2022/03/29 06:58:55;;;;;;;19.42;10.82;;;;;;;18.77;49.99;101575.25;5044064;28;20051;-51
2022/03/29 07:01:24;;;;;;;22.25;10.88;;;;;;;18.78;50.08;101578.81;5044789;28;20051;-50
2022/03/29 07:03:51;;;;;;;18.25;10.25;;;;;;;18.77;49.88;101580.63;5044203;28;20052;-51
2022/03/29 07:06:17;;;;;;;18.58;10.48;;;;;;;18.78;49.10;101584.19;5044107;28;20412;-52
2022/03/29 07:11:49;;;;;;;17.40;10.10;;;;;;;18.77;49.39;101575.25;5046111;28;20052;-51
2022/03/29 07:14:15;;;;;;;18.95;10.25;;;;;;;18.78;49.33;101578.81;5048957;28;20059;-52
2022/03/29 07:16:44;;;;;;;16.48;10.15;;;;;;;18.76;49.54;101576.25;5049477;28;20140;-52
2022/03/29 07:19:11;;;;;;;18.33;10.45;;;;;;;18.77;49.23;101585.16;5044807;28;20091;-51
2022/03/29 07:21:39;;;;;;;19.00;10.25;;;;;;;18.78;49.38;101585.03;5051833;28;20328;-50
2022/03/29 07:24:06;;;;;;;17.77;9.68;;;;;;;18.80;48.94;101590.25;5048588;28;20052;-49
2022/03/29 07:26:34;;;;;;;15.50;9.07;;;;;;;18.80;48.43;101595.63;5051781;28;20081;-52
2022/03/29 07:29:01;;;;;;;17.48;10.15;;;;;;;18.79;49.41;101599.31;5050398;28;20128;-50
2022/03/29 07:31:28;;;;;;;16.65;8.93;;;;;;;18.78;48.57;101600.31;5049197;28;20397;-52
2022/03/29 07:33:54;;;;;;;15.63;10.45;;;;;;;18.77;48.68;101598.59;5051158;28;20053;-51
2022/03/29 07:36:21;;;;;;;14.23;8.88;;;;;;;18.77;48.61;101606.63;5045448;28;20052;-52
2022/03/29 07:38:48;;;;;;;15.90;9.60;;;;;;;18.78;48.57;101600.31;5050198;28;20040;-51
2022/03/29 07:41:14;;;;;;;15.57;9.05;;;;;;;18.78;48.30;101595.78;5048597;28;20618;-50
2022/03/29 07:43:41;;;;;;;15.70;9.88;;;;;;;18.79;48.40;101586.72;5051729;28;20127;-50
2022/03/29 07:46:07;;;;;;;16.70;10.25;;;;;;;18.79;48.22;101585.88;5052285;28;20459;-51
2022/03/29 07:48:34;;;;;;;18.02;9.93;;;;;;;18.81;48.08;101591.94;5053135;28;20611;-51
2022/03/29 07:51:21;;;;;;;13.73;8.63;;;;;;;18.81;48.15;101595.47;5046740;28;20045;-47
2022/03/29 07:53:48;;;;;;;13.88;9.38;;;;;;;18.82;48.52;101585.59;5041803;28;20128;-49
2022/03/29 07:56:15;;;;;;;15.40;8.82;;;;;;;18.82;47.54;101580.22;5045408;28;20044;-51
2022/03/29 07:58:41;;;;;;;15.63;8.73;;;;;;;18.83;47.90;101582.75;5047375;28;20041;-51
2022/03/29 08:01:08;;;;;;;16.25;8.88;;;;;;;18.84;47.81;101572.88;5048896;28;20462;-48
2022/03/29 08:03:35;;;;;;;14.40;8.93;;;;;;;18.84;47.70;101572.88;5049052;28;20072;-50
2022/03/29 08:06:02;;;;;;;15.02;8.77;;;;;;;18.84;47.52;101579.09;5052367;28;20060;-51
2022/03/29 08:08:31;;;;;;;16.48;10.10;;;;;;;18.84;47.21;101568.34;5051872;28;20044;-47
2022/03/29 08:10:58;;;;;;;14.35;8.38;;;;;;;18.84;47.77;101571.03;5039985;28;20442;-49
2022/03/29 08:13:25;;;;;;;13.48;7.75;;;;;;;18.86;47.53;101574.44;5044357;28;20136;-49
2022/03/29 08:15:53;;;;;;;14.85;9.07;;;;;;;18.87;47.77;101576.13;5045114;28;20132;-49
2022/03/29 08:18:20;;;;;;;14.38;8.60;;;;;;;18.88;47.66;101574.28;5045838;28;20055;-48
2022/03/29 08:20:47;;;;;;;17.65;10.02;;;;;;;18.91;48.12;101572.16;5045542;28;20049;-48
2022/03/29 08:23:14;;;;;;;13.68;9.02;;;;;;;18.93;47.78;101572.00;5047429;28;20111;-50
2022/03/29 08:25:43;;;;;;;12.73;8.00;;;;;;;18.94;47.81;101569.19;5047967;28;20458;-48
2022/03/29 08:28:09;;;;;;;13.95;8.00;;;;;;;18.97;47.54;101565.34;5048255;28;20128;-49
2022/03/29 08:30:43;;;;;;;11.60;7.90;;;;;;;18.99;47.48;101566.09;5051956;28;20369;-52
2022/03/29 08:33:10;;;;;;;;;;;;;;;18.99;47.63;101564.25;5043013;28;20055;-51
2022/03/29 08:35:38;;;;;;;12.05;8.15;;;;;;;19.04;47.64;101562.97;5042514;28;19924;-47
2022/03/29 08:38:05;;;;;;;12.55;7.85;;;;;;;19.04;47.70;101568.34;5046471;28;20455;-48
2022/03/29 08:40:56;;;;;;;12.90;7.88;;;;;;;19.03;47.38;101575.56;5043950;28;20053;-51
2022/03/29 08:43:28;;;;;;;12.48;8.65;;;;;;;19.04;47.62;101574.56;5050355;28;20147;-50
2022/03/29 08:45:56;;;;;;;12.75;8.60;;;;;;;19.04;47.50;101574.56;5046715;28;20480;-51
2022/03/29 08:48:28;;;;;;;13.88;8.85;;;;;;;19.03;47.54;101570.19;5049423;28;20041;-47
2022/03/29 08:50:57;;;;;;;13.30;7.85;;;;;;;19.03;47.63;101569.34;5049901;28;20151;-49
2022/03/29 08:53:48;;;;;;;13.52;8.30;;;;;;;19.03;47.55;101566.66;5048691;28;20056;-51
2022/03/29 08:56:15;;;;;;;14.05;8.40;;;;;;;19.04;47.79;101569.19;5051357;28;20055;-51
2022/03/29 08:58:41;;;;;;;14.02;8.35;;;;;;;19.08;47.28;101561.69;5049184;28;20124;-50
2022/03/29 09:01:08;;;;;;;11.63;8.10;;;;;;;19.11;46.90;101558.72;5047557;28;20049;-48
2022/03/29 09:03:35;;;;;;;12.70;8.50;;;;;;;19.12;46.88;101566.63;5048432;28;20408;-51
2022/03/29 09:06:07;;;;;;;11.65;8.52;;;;;;;19.13;47.04;101562.94;5049380;28;20045;-50
2022/03/29 09:08:44;;;;;;;15.10;9.27;;;;;;;19.15;46.93;101562.81;5045125;28;20041;-49
2022/03/29 09:11:12;;;;;;;12.98;8.23;;;;;;;19.17;46.93;101558.97;5046433;28;20076;-50
2022/03/29 09:13:40;;;;;;;12.50;7.75;;;;;;;19.20;46.50;101550.63;5047884;28;20048;-52
2022/03/29 09:16:08;;;;;;;13.65;8.63;;;;;;;19.24;46.34;101559.25;5047666;28;20095;-51
2022/03/29 09:18:35;;;;;;;11.52;8.02;;;;;;;19.27;46.98;101566.19;5046564;28;20028;-53
2022/03/29 09:21:08;;;;;;;14.13;8.63;;;;;;;19.30;46.44;101563.22;5049849;28;20124;-50
2022/03/29 09:23:35;;;;;;;;;;;;;;;19.32;46.47;101561.22;5046840;28;20045;-51
2022/03/29 09:26:03;;;;;;;13.38;8.65;;;;;;;19.35;45.85;101564.47;5045817;28;19924;-50
2022/03/29 09:28:37;;;;;;;13.23;8.23;;;;;;;19.36;46.25;101566.16;5047836;28;20065;-48
2022/03/29 09:31:36;;;;;;;11.75;7.25;;;;;;;19.40;46.21;101561.34;5043085;28;20140;-52
2022/03/29 09:34:18;;;;;;;12.18;7.65;;;;;;;19.43;46.63;101569.97;5011893;28;20049;-50
2022/03/29 09:36:52;;;;;;;12.75;8.38;;;;;;;19.46;46.36;101564.31;5047244;28;20057;-52
2022/03/29 09:39:35;;;;;;;11.43;7.65;;;;;;;19.49;46.97;101563.16;5047138;28;20131;-49
2022/03/29 09:42:09;;;;;;;10.48;6.85;;;;;;;19.54;46.73;101560.03;5047596;28;20055;-51
2022/03/29 09:44:47;;;;;;;10.40;7.05;;;;;;;19.60;47.08;101556.75;5050600;28;20033;-52
2022/03/29 09:47:20;;;;;;;11.45;7.88;;;;;;;19.63;47.25;101546.59;5046418;28;20545;-48
2022/03/29 09:49:57;;;;;;;11.18;7.38;;;;;;;19.67;47.04;101542.63;5044184;28;20044;-49
2022/03/29 09:52:28;;;;;;;10.63;7.20;;;;;;;19.71;47.20;101549.41;5043367;28;20064;-50
2022/03/29 09:55:09;;;;;;;9.35;6.82;;;;;;;19.74;46.78;101545.56;5041705;28;20084;-50
2022/03/29 09:57:38;;;;;;;10.32;7.00;;;;;;;19.78;46.97;101543.41;5044362;28;20538;-50
2022/03/29 10:00:07;;;;;;;9.40;6.80;;;;;;;19.80;46.91;101530.69;5046101;28;20442;-52
2022/03/29 10:02:40;;;;;;;8.95;6.80;;;;;;;19.82;46.77;101524.16;5039422;28;20045;-49
2022/03/29 10:05:10;;;;;;;10.60;6.63;;;;;;;19.85;47.29;101526.53;5047223;28;20100;-49
2022/03/29 10:07:45;;;;;;;10.68;7.45;;;;;;;19.89;46.58;101532.47;5047391;28;20132;-53
2022/03/29 10:10:12;;;;;;;9.48;6.43;;;;;;;19.95;47.11;101534.56;5046950;28;20468;-52
2022/03/29 10:12:39;;;;;;;14.15;7.53;;;;;;;20.01;46.61;101527.72;5043891;28;20045;-51
2022/03/29 10:15:26;;;;;;;11.80;6.85;;;;;;;20.06;46.07;101522.75;5043666;28;20037;-51
2022/03/29 10:17:55;;;;;;;10.82;6.88;;;;;;;20.11;46.66;101523.16;5042014;28;20049;-52
2022/03/29 10:20:22;;;;;;;10.35;6.72;;;;;;;20.15;46.54;101521.84;5042775;28;20040;-52
2022/03/29 10:22:49;;;;;;;10.38;7.05;;;;;;;20.17;46.37;101514.47;5046382;28;20132;-51
2022/03/29 10:25:15;;;;;;;9.23;6.43;;;;;;;20.19;45.96;101515.19;5045439;28;20131;-49
2022/03/29 10:27:42;;;;;;;10.10;6.97;;;;;;;20.21;46.00;101524.78;5047822;28;20729;-50
2022/03/29 10:30:09;;;;;;;9.35;6.63;;;;;;;20.24;45.57;101523.63;5046391;28;20331;-51
2022/03/29 10:32:36;;;;;;;12.52;6.80;;;;;;;20.27;46.09;101519.81;5038368;28;20095;-53
2022/03/29 10:35:08;;;;;;;12.07;7.50;;;;;;;20.27;46.16;101512.56;5045124;28;20373;-52
2022/03/29 10:37:56;;;;;;;9.45;6.95;;;;;;;20.29;46.20;101509.72;5042494;28;20056;-51
2022/03/29 10:40:37;;;;;;;10.95;7.28;;;;;;;20.32;45.51;101509.41;5043246;28;20152;-52
2022/03/29 10:43:32;;;;;;;11.27;6.95;;;;;;;20.35;46.02;101511.81;5045510;28;20141;-52
2022/03/29 10:45:59;;;;;;;12.05;7.20;;;;;;;20.39;45.36;101508.66;5046775;28;20095;-51
2022/03/29 10:48:25;;;;;;;12.13;6.85;;;;;;;20.42;45.80;101502.97;5044126;28;20041;-52
2022/03/29 10:50:57;;;;;;;10.55;6.75;;;;;;;20.45;45.35;101501.81;5045318;28;20059;-52
2022/03/29 10:53:34;;;;;;;10.48;6.95;;;;;;;20.48;45.58;101504.19;5046286;28;20041;-52
2022/03/29 10:56:15;;;;;;;9.73;6.75;;;;;;;20.48;44.85;101504.19;5044482;28;20136;-52
2022/03/29 10:59:00;;;;;;;11.65;7.45;;;;;;;20.49;45.55;101497.00;5047652;28;20119;-52
2022/03/29 11:01:27;;;;;;;10.02;6.65;;;;;;;20.50;45.35;101496.81;5043284;28;20135;-52
2022/03/29 11:04:20;;;;;;;11.07;6.75;;;;;;;20.49;44.87;101497.81;5047024;28;20388;-52
2022/03/29 11:07:07;;;;;;;10.95;7.07;;;;;;;20.49;45.16;101491.59;5044315;28;20367;-52
2022/03/29 11:09:35;;;;;;;11.82;8.30;;;;;;;20.48;44.82;101488.03;5044783;28;20128;-51
2022/03/29 11:12:03;;;;;;;10.07;6.93;;;;;;;20.49;45.55;101488.91;5043208;28;20056;-54
2022/03/29 11:14:34;;;;;;;11.85;7.03;;;;;;;20.47;44.86;101480.97;5044626;28;20053;-50
2022/03/29 11:17:00;;;;;;;11.85;7.30;;;;;;;20.47;45.33;101480.97;5041702;28;20107;-53
2022/03/29 11:19:48;;;;;;;10.32;6.63;;;;;;;20.48;44.67;101473.72;5044066;28;20052;-51
2022/03/29 11:22:23;;;;;;;11.90;7.55;;;;;;;20.49;45.21;101465.50;5047755;28;20091;-49
2022/03/29 11:24:53;;;;;;;11.15;7.40;;;;;;;20.51;44.92;101466.22;5046032;28;20056;-51
2022/03/29 11:27:26;;;;;;;10.70;6.85;;;;;;;20.52;45.01;101465.22;5047347;28;20046;-52
2022/03/29 11:29:54;;;;;;;10.18;7.63;;;;;;;20.54;44.75;101455.13;5039146;28;20041;-52
2022/03/29 11:32:21;;;;;;;11.77;7.57;;;;;;;20.57;44.52;101452.13;5036610;28;20059;-53